Weather at Eindhoven Airport

Public forecast

Using degrees Celsius for public forecast. Weather courtesy of forecast.io.

Current aviation weather report (METAR) for Eindhoven Airport

Retrieved 2020/10/01 22:25 UTC (9 minutes ago):

EHEH 012225Z AUTO 16006KT 130V190 9999 BKN110 10/10 Q0999 BLU

Aviation forecast (TAF) for Eindhoven Airport

Retrieved 2020/10/01 18:00 UTC (5 hours ago):

TAF EHEH 011728Z 0118/0224 19007KT 9999 FEW025 BKN070 BECMG 0202/0204 10006KT TEMPO 0208/0213 11010G20KT BECMG 0214/0216 06007KT TEMPO 0218/0224 07015G25KT